createdAt,value
2018-07-14T00:00:50.831Z,1007.85
2018-07-14T00:01:50.832Z,1007.89
2018-07-14T00:02:50.807Z,1007.85
2018-07-14T00:03:50.797Z,1007.86
2018-07-14T00:04:50.803Z,1007.82
2018-07-14T00:05:50.778Z,1007.87
2018-07-14T00:06:50.768Z,1007.88
2018-07-14T00:07:50.758Z,1007.90
2018-07-14T00:08:50.767Z,1007.83
2018-07-14T00:09:50.737Z,1007.86
2018-07-14T00:10:50.722Z,1007.88
2018-07-14T00:11:50.713Z,1007.91
2018-07-14T00:12:50.705Z,1007.89
2018-07-14T00:13:50.694Z,1007.85
2018-07-14T00:14:50.697Z,1007.89
2018-07-14T00:15:50.670Z,1007.88
2018-07-14T00:16:50.663Z,1007.89
2018-07-14T00:17:50.653Z,1007.87
2018-07-14T00:18:50.640Z,1007.88
2018-07-14T00:19:50.643Z,1007.89
2018-07-14T00:20:50.621Z,1007.87
2018-07-14T00:21:50.607Z,1007.89
2018-07-14T00:22:50.599Z,1007.90
2018-07-14T00:23:50.590Z,1007.88
2018-07-14T00:24:50.620Z,1007.83
2018-07-14T00:25:50.568Z,1007.87
2018-07-14T00:26:50.556Z,1007.85
2018-07-14T00:27:50.547Z,1007.88
2018-07-14T00:28:50.534Z,1007.81
2018-07-14T00:29:50.524Z,1007.87
2018-07-14T00:30:50.537Z,1007.85
2018-07-14T00:31:50.503Z,1007.81
2018-07-14T00:32:50.493Z,1007.85
2018-07-14T00:33:50.481Z,1007.86
2018-07-14T00:34:50.472Z,1007.91
2018-07-14T00:35:50.459Z,1007.88
2018-07-14T00:36:50.462Z,1007.95
2018-07-14T00:37:50.440Z,1007.95
2018-07-14T00:38:50.443Z,1007.94
2018-07-14T00:39:50.418Z,1007.91
2018-07-14T00:40:50.407Z,1007.94
2018-07-14T00:41:50.412Z,1007.94
2018-07-14T00:42:50.385Z,1007.96
2018-07-14T00:43:50.378Z,1007.97
2018-07-14T00:44:50.370Z,1007.93
2018-07-14T00:45:50.354Z,1007.93
2018-07-14T00:46:50.366Z,1007.95
2018-07-14T00:47:50.336Z,1007.89
2018-07-14T00:48:50.321Z,1007.91
2018-07-14T00:49:50.313Z,1007.93
2018-07-14T00:50:50.316Z,1007.95
2018-07-14T00:51:50.291Z,1007.90
2018-07-14T00:52:50.297Z,1007.97
2018-07-14T00:53:50.272Z,1007.93
2018-07-14T00:54:50.262Z,1007.94
2018-07-14T00:55:50.252Z,1007.95
2018-07-14T00:56:50.239Z,1007.95
2018-07-14T00:57:50.245Z,1007.96
2018-07-14T00:58:50.217Z,1007.93
2018-07-14T00:59:50.210Z,1007.90
2018-07-14T01:00:50.214Z,1008.00
2018-07-14T01:01:50.186Z,1007.95
2018-07-14T01:02:50.176Z,1007.90
2018-07-14T01:03:50.180Z,1007.90
2018-07-14T01:04:50.155Z,1007.94
2018-07-14T01:05:50.147Z,1007.89
2018-07-14T01:06:50.136Z,1007.95
2018-07-14T01:07:50.123Z,1007.98
2018-07-14T01:08:50.125Z,1007.99
2018-07-14T01:09:50.116Z,1007.94
2018-07-14T01:10:50.093Z,1007.93
2018-07-14T01:11:50.084Z,1007.91
2018-07-14T01:12:50.071Z,1007.87
2018-07-14T01:13:50.074Z,1007.92
2018-07-14T01:14:50.048Z,1007.92
2018-07-14T01:15:50.051Z,1007.92
2018-07-14T01:16:50.041Z,1007.93
2018-07-14T01:17:50.161Z,1007.94
2018-07-14T01:18:50.012Z,1007.93
2018-07-14T01:19:50.012Z,1007.93
2018-07-14T01:20:49.985Z,1007.99
2018-07-14T01:21:49.990Z,1007.98
2018-07-14T01:22:49.963Z,1007.97
2018-07-14T01:23:49.953Z,1007.91
2018-07-14T01:24:49.964Z,1007.96
2018-07-14T01:25:49.935Z,1007.94
2018-07-14T01:26:49.922Z,1007.94
2018-07-14T01:27:49.914Z,1007.92
2018-07-14T01:28:49.899Z,1007.92
2018-07-14T01:29:49.891Z,1007.95
2018-07-14T01:30:49.899Z,1007.98
2018-07-14T01:31:49.869Z,1007.96
2018-07-14T01:32:49.865Z,1007.98
2018-07-14T01:33:49.848Z,1007.98
2018-07-14T01:34:49.837Z,1007.95
2018-07-14T01:35:49.827Z,1007.98
2018-07-14T01:36:49.830Z,1008.01
2018-07-14T01:37:49.806Z,1007.98
2018-07-14T01:38:49.792Z,1008.00
2018-07-14T01:39:49.785Z,1007.99
2018-07-14T01:40:49.775Z,1008.01
2018-07-14T01:41:49.776Z,1007.99
2018-07-14T01:42:49.752Z,1008.08
2018-07-14T01:43:49.738Z,1008.05
2018-07-14T01:44:49.729Z,1008.05
2018-07-14T01:45:49.721Z,1008.06
2018-07-14T01:46:49.722Z,1008.08
2018-07-14T01:47:49.715Z,1008.04
2018-07-14T01:48:49.689Z,1008.08
2018-07-14T01:49:49.679Z,1008.08
2018-07-14T01:50:49.666Z,1008.05
2018-07-14T01:51:49.656Z,1008.13
2018-07-14T01:52:49.657Z,1008.09
2018-07-14T01:53:49.633Z,1008.08
2018-07-14T01:54:49.623Z,1008.14
2018-07-14T01:55:49.614Z,1008.11
2018-07-14T01:56:49.618Z,1008.11
2018-07-14T01:57:49.593Z,1008.08
2018-07-14T01:58:49.579Z,1008.09
2018-07-14T01:59:49.570Z,1008.15
2018-07-14T02:00:49.574Z,1008.12
2018-07-14T02:01:49.547Z,1008.15
2018-07-14T02:02:49.549Z,1008.07
2018-07-14T02:03:49.527Z,1008.09
2018-07-14T02:04:49.514Z,1008.14
2018-07-14T02:05:49.505Z,1008.12
2018-07-14T02:06:49.509Z,1008.09
2018-07-14T02:07:49.486Z,1008.06
2018-07-14T02:08:49.472Z,1008.02
2018-07-14T02:09:49.462Z,1008.09
2018-07-14T02:10:49.448Z,1008.09
2018-07-14T02:11:49.440Z,1008.02
2018-07-14T02:12:49.451Z,1008.06
2018-07-14T02:13:49.419Z,1008.07
2018-07-14T02:14:49.405Z,1008.04
2018-07-14T02:15:49.395Z,1008.09
2018-07-14T02:16:49.386Z,1008.05
2018-07-14T02:17:49.376Z,1008.00
2018-07-14T02:18:49.382Z,1008.03
2018-07-14T02:19:49.352Z,1008.08
2018-07-14T02:20:49.343Z,1008.08
2018-07-14T02:21:49.332Z,1008.03
2018-07-14T02:22:49.333Z,1008.02
2018-07-14T02:23:49.308Z,1008.02
2018-07-14T02:24:49.341Z,1008.04
2018-07-14T02:25:49.287Z,1008.04
2018-07-14T02:26:49.279Z,1008.03
2018-07-14T02:27:49.266Z,1008.00
2018-07-14T02:28:49.255Z,1008.01
2018-07-14T02:29:49.250Z,1008.02
2018-07-14T02:30:49.250Z,1008.04
2018-07-14T02:31:49.238Z,1008.07
2018-07-14T02:32:49.214Z,1008.05
2018-07-14T02:33:49.206Z,1008.02
2018-07-14T02:34:49.197Z,1008.03
2018-07-14T02:35:49.187Z,1008.03
2018-07-14T02:36:49.195Z,1008.05
2018-07-14T02:37:49.164Z,1008.06
2018-07-14T02:38:49.150Z,1008.03
2018-07-14T02:39:49.139Z,1008.01
2018-07-14T02:40:49.129Z,1008.00
2018-07-14T02:41:49.118Z,1008.00
2018-07-14T02:42:49.160Z,1007.97
2018-07-14T02:43:49.113Z,1007.97
2018-07-14T02:44:49.087Z,1007.95
2018-07-14T02:45:49.076Z,1007.96
2018-07-14T02:46:49.071Z,1007.97
2018-07-14T02:47:49.055Z,1007.91
2018-07-14T02:48:49.063Z,1007.91
2018-07-14T02:49:49.033Z,1007.93
2018-07-14T02:50:49.024Z,1007.93
2018-07-14T02:51:49.011Z,1007.95
2018-07-14T02:52:48.999Z,1007.93
2018-07-14T02:53:49.010Z,1007.96
2018-07-14T02:54:48.984Z,1007.97
2018-07-14T02:55:48.970Z,1007.91
2018-07-14T02:56:48.959Z,1007.97
2018-07-14T02:57:48.950Z,1007.97
2018-07-14T02:58:48.939Z,1007.95
2018-07-14T02:59:48.976Z,1007.95
2018-07-14T03:00:48.918Z,1007.95
2018-07-14T03:01:48.909Z,1007.96
2018-07-14T03:02:48.895Z,1008.00
2018-07-14T03:03:48.882Z,1007.95
2018-07-14T03:04:48.870Z,1007.99
2018-07-14T03:05:48.890Z,1007.98
2018-07-14T03:06:48.851Z,1007.98
2018-07-14T03:07:48.840Z,1007.98
2018-07-14T03:08:48.830Z,1007.95
2018-07-14T03:09:48.821Z,1007.97
2018-07-14T03:10:48.807Z,1007.97
2018-07-14T03:11:48.835Z,1007.97
2018-07-14T03:12:48.798Z,1007.96
2018-07-14T03:13:48.780Z,1007.97
2018-07-14T03:14:48.764Z,1007.99
2018-07-14T03:15:48.759Z,1007.97
2018-07-14T03:16:48.745Z,1007.96
2018-07-14T03:17:48.748Z,1007.96
2018-07-14T03:18:48.741Z,1007.95
2018-07-14T03:19:48.728Z,1007.94
2018-07-14T03:20:48.700Z,1007.97
2018-07-14T03:21:48.688Z,1008.00
2018-07-14T03:22:48.695Z,1007.95
2018-07-14T03:23:48.671Z,1007.94
2018-07-14T03:24:48.657Z,1007.90
2018-07-14T03:25:48.667Z,1007.87
2018-07-14T03:26:48.643Z,1007.89
2018-07-14T03:27:48.623Z,1007.89
2018-07-14T03:28:48.613Z,1007.86
2018-07-14T03:29:48.609Z,1007.90
2018-07-14T03:30:48.593Z,1007.89
2018-07-14T03:31:48.593Z,1007.87
2018-07-14T03:32:48.585Z,1007.88
2018-07-14T03:33:48.561Z,1007.85
2018-07-14T03:34:48.624Z,1007.86
2018-07-14T03:35:48.536Z,1007.88
2018-07-14T03:36:48.641Z,1007.89
2018-07-14T03:37:48.518Z,1007.89
2018-07-14T03:38:48.503Z,1007.88
2018-07-14T03:39:48.495Z,1007.91
2018-07-14T03:40:48.481Z,1007.91
2018-07-14T03:41:48.474Z,1007.95
2018-07-14T03:42:48.480Z,1007.95
2018-07-14T03:43:48.448Z,1007.97
2018-07-14T03:44:48.441Z,1007.97
2018-07-14T03:45:48.428Z,1007.86
2018-07-14T03:46:48.431Z,1007.82
2018-07-14T03:47:48.423Z,1007.84
2018-07-14T03:48:48.398Z,1007.87
2018-07-14T03:49:48.388Z,1007.87
2018-07-14T03:50:48.379Z,1007.91
2018-07-14T03:51:48.380Z,1007.90
2018-07-14T03:52:48.356Z,1007.90
2018-07-14T03:53:48.344Z,1007.90
2018-07-14T03:54:48.332Z,1007.86
2018-07-14T03:55:48.345Z,1007.86
2018-07-14T03:56:48.362Z,1007.81
2018-07-14T03:57:48.299Z,1007.86
2018-07-14T03:58:48.292Z,1007.86
2018-07-14T03:59:48.280Z,1007.87
2018-07-14T04:00:48.267Z,1007.89
2018-07-14T04:01:48.273Z,1007.87
2018-07-14T04:02:48.246Z,1007.82
2018-07-14T04:03:48.275Z,1007.87
2018-07-14T04:04:48.227Z,1007.81
2018-07-14T04:05:48.217Z,1007.84
2018-07-14T04:06:48.207Z,1007.83
2018-07-14T04:07:48.192Z,1007.87
2018-07-14T04:08:48.184Z,1007.86
2018-07-14T04:09:48.184Z,1007.85
2018-07-14T04:10:48.163Z,1007.82
2018-07-14T04:11:48.167Z,1007.83
2018-07-14T04:12:48.142Z,1007.80
2018-07-14T04:13:48.128Z,1007.82
2018-07-14T04:14:48.174Z,1007.82
2018-07-14T04:15:48.111Z,1007.86
2018-07-14T04:16:48.109Z,1007.85
2018-07-14T04:17:48.100Z,1007.86
2018-07-14T04:18:48.079Z,1007.89
2018-07-14T04:19:48.077Z,1007.89
2018-07-14T04:20:48.058Z,1007.83
2018-07-14T04:21:48.045Z,1007.85
2018-07-14T04:22:48.070Z,1007.85
2018-07-14T04:23:48.021Z,1007.83
2018-07-14T04:24:48.013Z,1007.82
2018-07-14T04:25:48.001Z,1007.86
2018-07-14T04:26:47.990Z,1007.84
2018-07-14T04:27:47.978Z,1007.87
2018-07-14T04:28:47.982Z,1007.86
2018-07-14T04:29:47.956Z,1007.84
2018-07-14T04:30:47.962Z,1007.82
2018-07-14T04:31:47.949Z,1007.82
2018-07-14T04:32:47.934Z,1007.83
2018-07-14T04:33:47.917Z,1007.85
2018-07-14T04:34:47.916Z,1007.88
2018-07-14T04:35:47.902Z,1007.87
2018-07-14T04:36:47.882Z,1007.87
2018-07-14T04:37:47.870Z,1007.83
2018-07-14T04:38:47.859Z,1007.86
2018-07-14T04:39:47.870Z,1007.84
2018-07-14T04:40:47.840Z,1007.86
2018-07-14T04:41:47.827Z,1007.87
2018-07-14T04:42:47.820Z,1007.89
2018-07-14T04:43:47.806Z,1007.88
2018-07-14T04:44:47.797Z,1007.91
2018-07-14T04:45:47.803Z,1007.94
2018-07-14T04:46:47.782Z,1007.96
2018-07-14T04:47:47.799Z,1007.95
2018-07-14T04:48:47.756Z,1007.99
2018-07-14T04:49:47.743Z,1007.97
2018-07-14T04:50:47.732Z,1007.97
2018-07-14T04:51:47.722Z,1007.97
2018-07-14T04:52:47.714Z,1007.94
2018-07-14T04:53:47.716Z,1007.92
2018-07-14T04:54:47.695Z,1007.93
2018-07-14T04:55:47.693Z,1007.95
2018-07-14T04:56:47.672Z,1007.94
2018-07-14T04:57:47.664Z,1007.91
2018-07-14T04:58:47.687Z,1007.94
2018-07-14T04:59:47.638Z,1007.88
2018-07-14T05:00:47.631Z,1007.97
2018-07-14T05:01:47.616Z,1007.93
2018-07-14T05:02:47.608Z,1008.01
2018-07-14T05:03:47.598Z,1007.95
2018-07-14T05:04:47.599Z,1007.96
2018-07-14T05:05:47.577Z,1007.92
2018-07-14T05:06:47.565Z,1007.98
2018-07-14T05:07:47.553Z,1007.94
2018-07-14T05:08:47.544Z,1007.88
2018-07-14T05:09:47.545Z,1007.88
2018-07-14T05:10:47.520Z,1007.90
2018-07-14T05:11:47.508Z,1007.87
2018-07-14T05:12:47.496Z,1007.88
2018-07-14T05:13:47.487Z,1007.94
2018-07-14T05:14:47.475Z,1007.90
2018-07-14T05:15:47.481Z,1007.95
2018-07-14T05:16:47.455Z,1007.92
2018-07-14T05:17:47.445Z,1007.94
2018-07-14T05:18:47.429Z,1007.99
2018-07-14T05:19:47.422Z,1007.96
2018-07-14T05:20:47.406Z,1007.88
2018-07-14T05:21:47.409Z,1007.89
2018-07-14T05:22:47.385Z,1007.87
2018-07-14T05:23:47.373Z,1007.87
2018-07-14T05:24:47.365Z,1007.88
2018-07-14T05:25:47.351Z,1007.89
2018-07-14T05:26:47.358Z,1007.89
2018-07-14T05:27:47.347Z,1007.86
2018-07-14T05:28:47.320Z,1007.91
2018-07-14T05:29:47.306Z,1007.94
2018-07-14T05:30:47.295Z,1007.93
2018-07-14T05:31:47.285Z,1007.93
2018-07-14T05:32:47.271Z,1007.95
2018-07-14T05:33:47.273Z,1008.00
2018-07-14T05:34:47.248Z,1008.01
2018-07-14T05:35:47.238Z,1008.01
2018-07-14T05:36:47.226Z,1008.01
2018-07-14T05:37:47.230Z,1008.02
2018-07-14T05:38:47.223Z,1007.97
2018-07-14T05:39:47.195Z,1007.96
2018-07-14T05:40:47.182Z,1007.94
2018-07-14T05:41:47.176Z,1007.95
2018-07-14T05:42:47.161Z,1007.99
2018-07-14T05:43:47.146Z,1007.98
2018-07-14T05:44:47.157Z,1007.99
2018-07-14T05:45:47.127Z,1007.96
2018-07-14T05:46:47.113Z,1008.01
2018-07-14T05:47:47.103Z,1008.01
2018-07-14T05:48:47.094Z,1008.02
2018-07-14T05:49:47.080Z,1007.99
2018-07-14T05:50:47.083Z,1007.99
2018-07-14T05:51:47.058Z,1008.00
2018-07-14T05:52:47.046Z,1008.05
2018-07-14T05:53:47.034Z,1008.06
2018-07-14T05:54:47.024Z,1008.08
2018-07-14T05:55:47.030Z,1008.06
2018-07-14T05:56:47.004Z,1008.02
2018-07-14T05:57:47.005Z,1008.06
2018-07-14T05:58:46.980Z,1008.02
2018-07-14T05:59:46.969Z,1008.04
2018-07-14T06:00:46.963Z,1008.07
2018-07-14T06:01:46.966Z,1008.10
2018-07-14T06:02:46.935Z,1008.07
2018-07-14T06:03:46.930Z,1008.15
2018-07-14T06:04:46.912Z,1008.18
2018-07-14T06:05:46.901Z,1008.13
2018-07-14T06:06:46.892Z,1008.14
2018-07-14T06:07:46.994Z,1008.14
2018-07-14T06:08:46.868Z,1008.17
2018-07-14T06:09:46.860Z,1008.16
2018-07-14T06:10:46.847Z,1008.19
2018-07-14T06:11:46.836Z,1008.17
2018-07-14T06:12:46.826Z,1008.18
2018-07-14T06:13:46.824Z,1008.16
2018-07-14T06:14:46.806Z,1008.20
2018-07-14T06:15:46.796Z,1008.17
2018-07-14T06:16:46.782Z,1008.24
2018-07-14T06:17:46.814Z,1008.18
2018-07-14T06:18:46.761Z,1008.24
2018-07-14T06:19:46.753Z,1008.20
2018-07-14T06:20:46.742Z,1008.27
2018-07-14T06:21:46.729Z,1008.29
2018-07-14T06:22:46.720Z,1008.20
2018-07-14T06:23:46.716Z,1008.25
2018-07-14T06:24:46.699Z,1008.26
2018-07-14T06:25:46.686Z,1008.27
2018-07-14T06:26:46.674Z,1008.21
2018-07-14T06:27:46.664Z,1008.33
2018-07-14T06:28:46.678Z,1008.30
2018-07-14T06:29:46.642Z,1008.28
2018-07-14T06:30:46.630Z,1008.30
2018-07-14T06:31:46.624Z,1008.34
2018-07-14T06:32:46.612Z,1008.37
2018-07-14T06:33:46.598Z,1008.38
2018-07-14T06:34:46.603Z,1008.37
2018-07-14T06:35:46.578Z,1008.34
2018-07-14T06:36:46.570Z,1008.36
2018-07-14T06:37:46.571Z,1008.36
2018-07-14T06:38:46.562Z,1008.37
2018-07-14T06:39:46.537Z,1008.42
2018-07-14T06:40:46.523Z,1008.43
2018-07-14T06:41:46.513Z,1008.48
2018-07-14T06:42:46.544Z,1008.45
2018-07-14T06:43:46.492Z,1008.51
2018-07-14T06:44:46.510Z,1008.49
2018-07-14T06:45:46.469Z,1008.50
2018-07-14T06:46:46.463Z,1008.48
2018-07-14T06:47:46.449Z,1008.49
2018-07-14T06:48:46.457Z,1008.49
2018-07-14T06:49:46.426Z,1008.45
2018-07-14T06:50:46.418Z,1008.52
2018-07-14T06:51:46.405Z,1008.55
2018-07-14T06:52:46.395Z,1008.57
2018-07-14T06:53:46.388Z,1008.51
2018-07-14T06:54:46.402Z,1008.55
2018-07-14T06:55:46.367Z,1008.52
2018-07-14T06:56:46.353Z,1008.53
2018-07-14T06:57:46.343Z,1008.49
2018-07-14T06:58:46.333Z,1008.54
2018-07-14T06:59:46.320Z,1008.58
2018-07-14T07:00:46.348Z,1008.54
2018-07-14T07:01:46.302Z,1008.59
2018-07-14T07:02:46.291Z,1008.61
2018-07-14T07:03:46.277Z,1008.60
2018-07-14T07:04:46.266Z,1008.63
2018-07-14T07:05:46.256Z,1008.60
2018-07-14T07:06:46.261Z,1008.64
2018-07-14T07:07:46.236Z,1008.72
2018-07-14T07:08:46.222Z,1008.67
2018-07-14T07:09:46.212Z,1008.64
2018-07-14T07:10:46.221Z,1008.67
2018-07-14T07:11:46.193Z,1008.67
2018-07-14T07:12:46.182Z,1008.66
2018-07-14T07:13:46.240Z,1008.62
2018-07-14T07:14:46.164Z,1008.68
2018-07-14T07:15:46.147Z,1008.69
2018-07-14T07:16:46.151Z,1008.68
2018-07-14T07:17:46.145Z,1008.67
2018-07-14T07:18:46.121Z,1008.65
2018-07-14T07:19:46.108Z,1008.67
2018-07-14T07:20:46.097Z,1008.61
2018-07-14T07:21:46.087Z,1008.68
2018-07-14T07:22:46.074Z,1008.65
2018-07-14T07:23:46.099Z,1008.63
2018-07-14T07:24:46.052Z,1008.62
2018-07-14T07:25:46.042Z,1008.65
2018-07-14T07:26:46.033Z,1008.66
2018-07-14T07:27:46.024Z,1008.62
2018-07-14T07:28:46.059Z,1008.58
2018-07-14T07:29:46.019Z,1008.63
2018-07-14T07:30:45.993Z,1008.59
2018-07-14T07:31:45.981Z,1008.60
2018-07-14T07:32:45.969Z,1008.60
2018-07-14T07:33:45.962Z,1008.60
2018-07-14T07:34:46.090Z,1008.63
2018-07-14T07:35:45.983Z,1008.58
2018-07-14T07:36:45.927Z,1008.64
2018-07-14T07:37:45.921Z,1008.65
2018-07-14T07:38:45.904Z,1008.68
2018-07-14T07:39:45.897Z,1008.71
2018-07-14T07:40:45.883Z,1008.69
2018-07-14T07:41:45.887Z,1008.71
2018-07-14T07:42:45.863Z,1008.70
2018-07-14T07:43:45.852Z,1008.76
2018-07-14T07:44:45.844Z,1008.71
2018-07-14T07:45:45.833Z,1008.72
2018-07-14T07:46:45.835Z,1008.72
2018-07-14T07:47:45.827Z,1008.72
2018-07-14T07:48:45.799Z,1008.68
2018-07-14T07:49:45.788Z,1008.77
2018-07-14T07:50:45.777Z,1008.78
2018-07-14T07:51:45.766Z,1008.82
2018-07-14T07:52:45.758Z,1008.74
2018-07-14T07:53:45.774Z,1008.76
2018-07-14T07:54:45.739Z,1008.75
2018-07-14T07:55:45.725Z,1008.78
2018-07-14T07:56:45.713Z,1008.79
2018-07-14T07:57:45.703Z,1008.81
2018-07-14T07:58:45.695Z,1008.81
2018-07-14T07:59:45.698Z,1008.83
2018-07-14T08:00:45.671Z,1008.85
2018-07-14T08:01:45.664Z,1008.84
2018-07-14T08:02:45.673Z,1008.79
2018-07-14T08:03:45.640Z,1008.82
2018-07-14T08:04:45.630Z,1008.81
2018-07-14T08:05:45.618Z,1008.76
2018-07-14T08:06:45.610Z,1008.74
2018-07-14T08:07:45.597Z,1008.78
2018-07-14T08:08:45.701Z,1008.76
2018-07-14T08:09:45.578Z,1008.72
2018-07-14T08:10:45.569Z,1008.76
2018-07-14T08:11:45.558Z,1008.76
2018-07-14T08:12:45.549Z,1008.75
2018-07-14T08:13:45.535Z,1008.76
2018-07-14T08:14:45.550Z,1008.76
2018-07-14T08:15:45.514Z,1008.83
2018-07-14T08:16:45.503Z,1008.85
2018-07-14T08:17:45.492Z,1008.83
2018-07-14T08:18:45.486Z,1008.83
2018-07-14T08:19:45.474Z,1008.84
2018-07-14T08:20:45.486Z,1008.85
2018-07-14T08:21:45.451Z,1008.83
2018-07-14T08:22:45.512Z,1008.90
2018-07-14T08:23:45.430Z,1008.91
2018-07-14T08:24:45.421Z,1008.88
2018-07-14T08:25:45.409Z,1008.93
2018-07-14T08:26:45.411Z,1008.90
2018-07-14T08:27:45.390Z,1008.94
2018-07-14T08:28:45.380Z,1008.96
2018-07-14T08:29:45.370Z,1008.91
2018-07-14T08:30:45.358Z,1008.90
2018-07-14T08:31:45.386Z,1008.89
2018-07-14T08:32:45.336Z,1008.89
2018-07-14T08:33:45.327Z,1008.91
2018-07-14T08:34:45.315Z,1008.85
2018-07-14T08:35:45.310Z,1008.86
2018-07-14T08:36:45.297Z,1008.85
2018-07-14T08:37:45.324Z,1008.83
2018-07-14T08:38:45.276Z,1008.85
2018-07-14T08:39:45.263Z,1008.87
2018-07-14T08:40:45.255Z,1008.85
2018-07-14T08:41:45.242Z,1008.81
2018-07-14T08:42:45.235Z,1008.85
2018-07-14T08:43:45.298Z,1008.89
2018-07-14T08:44:45.211Z,1008.89
2018-07-14T08:45:45.204Z,1008.93
2018-07-14T08:46:45.192Z,1008.87
2018-07-14T08:47:45.183Z,1008.93
2018-07-14T08:48:45.186Z,1008.97
2018-07-14T08:49:45.159Z,1008.91
2018-07-14T08:50:45.148Z,1008.92
2018-07-14T08:51:45.139Z,1008.90
2018-07-14T08:52:45.131Z,1008.94
2018-07-14T08:53:45.134Z,1008.92
2018-07-14T08:54:45.111Z,1008.93
2018-07-14T08:55:45.098Z,1008.92
2018-07-14T08:56:45.087Z,1008.94
2018-07-14T08:57:45.077Z,1008.94
2018-07-14T08:58:45.067Z,1008.86
2018-07-14T08:59:45.100Z,1008.89
2018-07-14T09:00:45.048Z,1008.93
2018-07-14T09:01:45.040Z,1008.88
2018-07-14T09:02:45.027Z,1008.84
2018-07-14T09:03:45.066Z,1008.89
2018-07-14T09:04:45.009Z,1008.93
2018-07-14T09:05:45.017Z,1008.93
2018-07-14T09:06:44.985Z,1008.98
2018-07-14T09:07:44.977Z,1008.98
2018-07-14T09:08:44.966Z,1008.90
2018-07-14T09:09:44.957Z,1008.95
2018-07-14T09:10:44.946Z,1008.96
2018-07-14T09:11:44.968Z,1008.93
2018-07-14T09:12:44.926Z,1008.95
2018-07-14T09:13:44.914Z,1008.91
2018-07-14T09:14:44.902Z,1008.95
2018-07-14T09:15:44.892Z,1008.96
2018-07-14T09:17:44.885Z,1008.97
2018-07-14T09:18:44.861Z,1008.99
2018-07-14T09:19:44.855Z,1008.99
2018-07-14T09:20:44.840Z,1009.02
2018-07-14T09:21:44.836Z,1008.98
2018-07-14T09:22:44.838Z,1008.98
2018-07-14T09:23:44.810Z,1009.00
2018-07-14T09:24:44.804Z,1008.94
2018-07-14T09:25:44.793Z,1009.02
2018-07-14T09:26:44.781Z,1009.03
2018-07-14T09:27:44.785Z,1009.03
2018-07-14T09:28:44.775Z,1009.01
2018-07-14T09:29:44.753Z,1009.04
2018-07-14T09:30:44.744Z,1008.94
2018-07-14T09:31:44.731Z,1009.00
2018-07-14T09:32:44.724Z,1008.97
2018-07-14T09:33:44.724Z,1009.00
2018-07-14T09:34:44.717Z,1008.97
2018-07-14T09:35:44.694Z,1008.98
2018-07-14T09:36:44.685Z,1009.00
2018-07-14T09:37:44.672Z,1009.02
2018-07-14T09:38:44.663Z,1009.03
2018-07-14T09:39:44.670Z,1009.04
2018-07-14T09:40:44.642Z,1009.05
2018-07-14T09:41:44.633Z,1009.04
2018-07-14T09:42:44.622Z,1008.99
2018-07-14T09:43:44.609Z,1008.96
2018-07-14T09:44:44.612Z,1008.97
2018-07-14T09:45:44.605Z,1008.98
2018-07-14T09:46:44.584Z,1008.99
2018-07-14T09:47:44.615Z,1008.98
2018-07-14T09:48:44.560Z,1008.97
2018-07-14T09:49:44.553Z,1008.96
2018-07-14T09:50:44.541Z,1008.98
2018-07-14T09:51:44.531Z,1008.94
2018-07-14T09:52:44.520Z,1008.93
2018-07-14T09:53:44.523Z,1008.94
2018-07-14T09:54:44.503Z,1008.91
2018-07-14T09:55:44.506Z,1008.93
2018-07-14T09:56:44.497Z,1008.87
2018-07-14T09:57:44.470Z,1008.87
2018-07-14T09:58:44.480Z,1008.87
2018-07-14T09:59:44.449Z,1008.87
2018-07-14T10:00:44.440Z,1008.82
2018-07-14T10:01:44.471Z,1008.86
2018-07-14T10:02:44.419Z,1008.82
2018-07-14T10:03:44.411Z,1008.88
2018-07-14T10:04:44.401Z,1008.82
2018-07-14T10:05:44.390Z,1008.82
2018-07-14T10:06:44.378Z,1008.83
2018-07-14T10:07:44.383Z,1008.86
2018-07-14T10:08:44.359Z,1008.89
2018-07-14T10:09:44.348Z,1008.91
2018-07-14T10:10:44.339Z,1008.91
2018-07-14T10:11:44.339Z,1008.93
2018-07-14T10:12:44.319Z,1008.86
2018-07-14T10:13:44.309Z,1008.87
2018-07-14T10:14:44.311Z,1008.93
2018-07-14T10:15:44.289Z,1008.66
2018-07-14T10:16:44.303Z,1008.92
2018-07-14T10:17:44.458Z,1008.95
2018-07-14T10:18:44.262Z,1008.91
2018-07-14T10:19:44.249Z,1008.94
2018-07-14T10:20:44.239Z,1008.88
2018-07-14T10:21:44.234Z,1008.88
2018-07-14T10:22:44.235Z,1008.88
2018-07-14T10:23:44.209Z,1008.91
2018-07-14T10:24:44.199Z,1008.92
2018-07-14T10:25:44.387Z,1008.89
2018-07-14T10:26:44.179Z,1008.90
2018-07-14T10:27:44.213Z,1008.89
2018-07-14T10:28:44.307Z,1008.81
2018-07-14T10:29:44.155Z,1008.85
2018-07-14T10:30:44.140Z,1008.86
2018-07-14T10:31:44.130Z,1008.91
2018-07-14T10:32:44.123Z,1008.86
2018-07-14T10:33:44.166Z,1008.93
2018-07-14T10:34:44.102Z,1008.89
2018-07-14T10:35:44.092Z,1008.89
2018-07-14T10:36:44.082Z,1008.91
2018-07-14T10:37:44.074Z,1008.90
2018-07-14T10:38:44.069Z,1008.88
2018-07-14T10:39:44.072Z,1008.86
2018-07-14T10:40:44.042Z,1008.89
2018-07-14T10:41:44.032Z,1008.84
2018-07-14T10:42:44.023Z,1008.82
2018-07-14T10:43:44.012Z,1008.86
2018-07-14T10:44:44.007Z,1008.84
2018-07-14T10:45:44.008Z,1008.85
2018-07-14T10:46:44.040Z,1008.83
2018-07-14T10:47:43.972Z,1008.80
2018-07-14T10:48:43.964Z,1008.84
2018-07-14T10:49:43.957Z,1008.83
2018-07-14T10:50:43.945Z,1008.85
2018-07-14T10:51:43.950Z,1008.87
2018-07-14T10:52:43.926Z,1008.81
2018-07-14T10:53:43.914Z,1008.79
2018-07-14T10:54:43.907Z,1008.81
2018-07-14T10:55:43.898Z,1008.81
2018-07-14T10:56:43.899Z,1008.78
2018-07-14T10:57:43.879Z,1008.73
2018-07-14T10:58:43.868Z,1008.76
2018-07-14T10:59:43.856Z,1008.77
2018-07-14T11:00:43.848Z,1008.77
2018-07-14T11:01:43.851Z,1008.62
2018-07-14T11:02:43.829Z,1008.72
2018-07-14T11:03:43.815Z,1008.50
2018-07-14T11:04:43.806Z,1008.27
2018-07-14T11:05:43.797Z,1008.31
2018-07-14T11:06:43.799Z,1008.27
2018-07-14T11:07:43.777Z,1008.33
2018-07-14T11:08:43.767Z,1008.22
2018-07-14T11:09:43.755Z,1008.70
2018-07-14T11:10:43.750Z,1008.70
2018-07-14T11:11:43.749Z,1008.65
2018-07-14T11:12:43.746Z,1008.73
2018-07-14T11:13:43.717Z,1008.69
2018-07-14T11:14:43.709Z,1008.69
2018-07-14T11:15:43.700Z,1008.65
2018-07-14T11:16:43.688Z,1008.72
2018-07-14T11:17:43.742Z,1008.65
2018-07-14T11:18:43.678Z,1008.68
2018-07-14T11:19:43.672Z,1008.66
2018-07-14T11:20:43.648Z,1008.64
2018-07-14T11:21:43.649Z,1008.63
2018-07-14T11:22:43.628Z,1008.62
2018-07-14T11:23:43.660Z,1008.62
2018-07-14T11:24:43.610Z,1008.61
2018-07-14T11:25:43.599Z,1008.63
2018-07-14T11:26:43.587Z,1008.69
2018-07-14T11:27:43.579Z,1008.60
2018-07-14T11:28:43.568Z,1008.46
2018-07-14T11:29:43.574Z,1008.40
2018-07-14T11:30:43.548Z,1008.64
2018-07-14T11:31:43.551Z,1008.61
2018-07-14T11:32:43.543Z,1008.47
2018-07-14T11:33:43.519Z,1008.58
2018-07-14T11:34:43.526Z,1008.10
2018-07-14T11:35:43.504Z,1008.58
2018-07-14T11:36:43.488Z,1008.50
2018-07-14T11:37:43.553Z,1008.45
2018-07-14T11:38:43.483Z,1008.56
2018-07-14T11:39:43.462Z,1008.52
2018-07-14T11:40:43.463Z,1008.53
2018-07-14T11:41:43.454Z,1008.52
2018-07-14T11:42:43.433Z,1008.59
2018-07-14T11:43:43.422Z,1008.52
2018-07-14T11:44:43.412Z,1008.13
2018-07-14T11:45:43.415Z,1008.62
2018-07-14T11:46:43.394Z,1008.01
2018-07-14T11:47:43.408Z,1008.26
2018-07-14T11:48:43.373Z,1008.50
2018-07-14T11:49:43.375Z,1008.44
2018-07-14T11:50:43.353Z,1008.48
2018-07-14T11:51:43.361Z,1008.05
2018-07-14T11:52:43.334Z,1008.41
2018-07-14T11:53:43.323Z,1008.40
2018-07-14T11:54:43.315Z,1008.45
2018-07-14T11:55:43.304Z,1008.42
2018-07-14T11:56:43.295Z,1008.44
2018-07-14T11:57:43.296Z,1008.01
2018-07-14T11:58:43.276Z,1008.48
2018-07-14T11:59:43.263Z,1008.15
2018-07-14T12:00:43.253Z,1007.84
2018-07-14T12:01:43.243Z,1007.80
2018-07-14T12:02:43.247Z,1007.84
2018-07-14T12:03:43.238Z,1007.75
2018-07-14T12:04:43.216Z,1007.79
2018-07-14T12:05:43.204Z,1007.86
2018-07-14T12:06:43.195Z,1008.22